createdAt,value
2018-10-06T00:00:31.312Z,8.17
2018-10-06T00:03:04.784Z,7.73
2018-10-06T00:05:38.211Z,8.20
2018-10-06T00:08:12.593Z,8.03
2018-10-06T00:10:45.265Z,8.23
2018-10-06T00:13:17.930Z,8.07
2018-10-06T00:15:50.767Z,8.30
2018-10-06T00:18:23.208Z,8.40
2018-10-06T00:20:55.995Z,7.67
2018-10-06T00:23:31.032Z,8.13
2018-10-06T00:26:03.604Z,8.30
2018-10-06T00:28:38.177Z,8.60
2018-10-06T00:31:12.186Z,8.48
2018-10-06T00:33:45.681Z,7.90
2018-10-06T00:36:19.989Z,8.43
2018-10-06T00:38:52.814Z,8.30
2018-10-06T00:41:28.348Z,7.80
2018-10-06T00:44:01.074Z,8.43
2018-10-06T00:46:34.159Z,7.87
2018-10-06T00:49:06.999Z,8.33
2018-10-06T00:51:39.668Z,8.30
2018-10-06T00:54:12.609Z,8.30
2018-10-06T00:56:45.129Z,8.10
2018-10-06T00:59:17.972Z,8.47
2018-10-06T01:01:50.869Z,8.23
2018-10-06T01:04:23.935Z,8.17
2018-10-06T01:06:56.707Z,8.50
2018-10-06T01:09:29.724Z,7.33
2018-10-06T01:12:02.249Z,8.80
2018-10-06T01:14:34.896Z,8.40
2018-10-06T01:17:09.907Z,9.27
2018-10-06T01:19:43.288Z,8.03
2018-10-06T01:22:17.500Z,9.23
2018-10-06T01:24:50.294Z,9.13
2018-10-06T01:27:22.869Z,8.27
2018-10-06T01:29:55.481Z,8.70
2018-10-06T01:32:28.260Z,8.70
2018-10-06T01:35:02.155Z,8.60
2018-10-06T01:37:34.708Z,9.00
2018-10-06T01:40:07.324Z,8.77
2018-10-06T01:42:40.195Z,8.57
2018-10-06T01:45:14.233Z,8.32
2018-10-06T01:47:46.956Z,7.90
2018-10-06T01:50:24.409Z,9.07
2018-10-06T01:52:56.908Z,8.73
2018-10-06T01:55:29.613Z,9.53
2018-10-06T01:58:03.046Z,9.17
2018-10-06T02:00:35.641Z,9.93
2018-10-06T02:03:08.486Z,9.20
2018-10-06T02:05:41.212Z,9.33
2018-10-06T02:08:13.780Z,9.93
2018-10-06T02:10:46.376Z,8.77
2018-10-06T02:13:20.196Z,9.37
2018-10-06T02:15:52.874Z,9.33
2018-10-06T02:18:27.633Z,10.20
2018-10-06T02:21:00.420Z,10.30
2018-10-06T02:23:33.041Z,10.73
2018-10-06T02:26:05.801Z,11.83
2018-10-06T02:28:39.161Z,11.80
2018-10-06T02:31:13.130Z,10.30
2018-10-06T02:33:45.750Z,9.97
2018-10-06T02:36:19.520Z,10.50
2018-10-06T02:38:52.068Z,9.70
2018-10-06T02:41:24.735Z,10.40
2018-10-06T02:44:00.337Z,10.17
2018-10-06T02:46:32.943Z,9.87
2018-10-06T02:49:05.605Z,9.97
2018-10-06T02:51:38.469Z,10.57
2018-10-06T02:54:11.017Z,9.93
2018-10-06T02:56:43.617Z,10.23
2018-10-06T02:59:17.880Z,10.63
2018-10-06T03:01:51.456Z,10.10
2018-10-06T03:04:24.045Z,10.75
2018-10-06T03:06:56.813Z,11.03
2018-10-06T03:09:29.393Z,10.60
2018-10-06T03:12:02.022Z,11.03
2018-10-06T03:14:36.328Z,11.07
2018-10-06T03:17:09.025Z,10.73
2018-10-06T03:19:41.696Z,10.93
2018-10-06T03:22:14.591Z,11.47
2018-10-06T03:24:47.072Z,11.70
2018-10-06T03:27:21.703Z,11.20
2018-10-06T03:29:56.369Z,11.83
2018-10-06T03:32:30.376Z,11.40
2018-10-06T03:35:03.020Z,11.83
2018-10-06T03:37:35.972Z,11.70
2018-10-06T03:40:08.561Z,12.00
2018-10-06T03:42:41.149Z,12.70
2018-10-06T03:45:16.966Z,9.77
2018-10-06T03:47:50.180Z,10.27
2018-10-06T03:50:22.729Z,10.97
2018-10-06T03:52:55.548Z,12.50
2018-10-06T03:55:29.410Z,11.57
2018-10-06T03:58:03.603Z,11.90
2018-10-06T04:00:39.019Z,12.23
2018-10-06T04:03:13.136Z,11.20
2018-10-06T04:05:45.874Z,12.60
2018-10-06T04:08:18.785Z,12.03
2018-10-06T04:10:51.438Z,11.87
2018-10-06T04:13:25.228Z,11.90
2018-10-06T04:15:58.372Z,13.23
2018-10-06T04:18:31.101Z,12.50
2018-10-06T04:21:05.625Z,12.37
2018-10-06T04:23:39.999Z,12.03
2018-10-06T04:26:16.059Z,12.53
2018-10-06T04:28:48.625Z,12.55
2018-10-06T04:31:32.819Z,11.87
2018-10-06T04:34:05.401Z,10.50
2018-10-06T04:36:38.267Z,10.93
2018-10-06T04:39:12.779Z,10.47
2018-10-06T04:41:46.375Z,10.77
2018-10-06T04:44:19.231Z,11.60
2018-10-06T04:46:52.247Z,9.93
2018-10-06T04:49:24.762Z,10.48
2018-10-06T04:51:57.414Z,9.90
2018-10-06T04:54:30.253Z,11.73
2018-10-06T04:57:03.001Z,11.03
2018-10-06T04:59:35.497Z,9.43
2018-10-06T05:02:08.536Z,9.13
2018-10-06T05:04:41.282Z,9.07
2018-10-06T05:07:13.892Z,9.80
2018-10-06T05:09:49.017Z,9.80
2018-10-06T05:12:21.670Z,10.33
2018-10-06T05:14:54.279Z,9.90
2018-10-06T05:17:27.356Z,10.83
2018-10-06T05:20:00.042Z,10.47
2018-10-06T05:22:32.924Z,10.33
2018-10-06T05:25:05.868Z,11.70
2018-10-06T05:27:38.561Z,11.03
2018-10-06T05:30:13.437Z,11.53
2018-10-06T05:32:46.445Z,12.07
2018-10-06T05:35:21.693Z,11.37
2018-10-06T05:37:55.195Z,9.50
2018-10-06T05:40:29.041Z,10.70
2018-10-06T05:43:01.618Z,9.90
2018-10-06T05:45:34.872Z,10.03
2018-10-06T05:48:07.757Z,10.23
2018-10-06T05:50:40.437Z,8.90
2018-10-06T05:53:13.147Z,10.10
2018-10-06T05:55:46.375Z,9.77
2018-10-06T05:58:18.891Z,10.07
2018-10-06T06:00:51.320Z,10.00
2018-10-06T06:03:24.457Z,9.77
2018-10-06T06:05:57.322Z,8.83
2018-10-06T06:08:29.788Z,9.87
2018-10-06T06:11:02.601Z,9.33
2018-10-06T06:13:36.105Z,9.30
2018-10-06T06:16:08.630Z,8.83
2018-10-06T06:18:44.732Z,8.32
2018-10-06T06:21:17.990Z,7.87
2018-10-06T06:23:50.650Z,7.83
2018-10-06T06:26:23.760Z,7.93
2018-10-06T06:28:59.005Z,7.87
2018-10-06T06:31:31.937Z,7.62
2018-10-06T06:34:08.665Z,6.73
2018-10-06T06:36:41.379Z,6.77
2018-10-06T06:39:14.102Z,6.67
2018-10-06T06:41:47.065Z,6.50
2018-10-06T06:44:20.162Z,5.70
2018-10-06T06:46:53.671Z,5.43
2018-10-06T06:49:26.640Z,5.40
2018-10-06T06:51:59.275Z,5.27
2018-10-06T06:54:33.457Z,4.80
2018-10-06T06:57:06.619Z,4.53
2018-10-06T06:59:42.100Z,4.90
2018-10-06T07:02:15.509Z,5.50
2018-10-06T07:04:48.136Z,5.10
2018-10-06T07:07:21.587Z,5.40
2018-10-06T07:09:54.206Z,4.90
2018-10-06T07:12:28.704Z,4.67
2018-10-06T07:15:04.774Z,4.53
2018-10-06T07:17:37.826Z,4.50
2018-10-06T07:20:10.481Z,4.40
2018-10-06T07:22:45.756Z,5.13
2018-10-06T07:25:19.097Z,5.67
2018-10-06T07:27:53.366Z,4.70
2018-10-06T07:30:27.998Z,4.80
2018-10-06T07:33:01.544Z,5.03
2018-10-06T07:35:34.493Z,4.73
2018-10-06T07:38:09.749Z,4.50
2018-10-06T07:40:44.361Z,4.80
2018-10-06T07:43:17.934Z,4.73
2018-10-06T07:45:51.388Z,4.73
2018-10-06T07:48:24.961Z,4.80
2018-10-06T07:50:57.567Z,4.80
2018-10-06T07:53:34.048Z,4.73
2018-10-06T07:56:07.816Z,4.70
2018-10-06T07:58:42.953Z,4.63
2018-10-06T08:01:16.281Z,4.17
2018-10-06T08:03:50.108Z,4.63
2018-10-06T08:06:23.166Z,4.30
2018-10-06T08:08:56.648Z,4.17
2018-10-06T08:11:29.282Z,4.20
2018-10-06T08:14:01.879Z,4.30
2018-10-06T08:16:35.812Z,4.43
2018-10-06T08:19:08.382Z,4.50
2018-10-06T08:21:42.787Z,4.40
2018-10-06T08:24:19.829Z,3.40
2018-10-06T08:26:56.254Z,4.17
2018-10-06T08:29:28.981Z,4.03
2018-10-06T08:32:02.850Z,4.40
2018-10-06T08:34:37.189Z,3.95
2018-10-06T08:37:10.832Z,3.50
2018-10-06T08:39:45.415Z,3.57
2018-10-06T08:42:18.038Z,3.60
2018-10-06T08:44:51.380Z,3.53
2018-10-06T08:47:24.816Z,3.70
2018-10-06T08:49:59.395Z,3.40
2018-10-06T08:52:35.940Z,3.12
2018-10-06T08:55:09.579Z,3.40
2018-10-06T08:57:42.979Z,3.77
2018-10-06T09:00:18.262Z,3.20
2018-10-06T09:02:52.885Z,3.30
2018-10-06T09:05:28.296Z,3.73
2018-10-06T09:08:05.225Z,3.67
2018-10-06T09:10:38.514Z,3.60
2018-10-06T09:13:16.109Z,3.67
2018-10-06T09:15:49.557Z,3.20
2018-10-06T09:18:23.120Z,3.43
2018-10-06T09:20:56.002Z,3.40
2018-10-06T09:23:29.494Z,3.20
2018-10-06T09:26:02.255Z,3.80
2018-10-06T09:28:37.205Z,3.53
2018-10-06T09:31:10.621Z,3.37
2018-10-06T09:33:44.289Z,6.47
2018-10-06T09:36:19.193Z,3.40
2018-10-06T09:38:52.199Z,2.93
2018-10-06T09:41:24.768Z,3.30
2018-10-06T09:43:58.059Z,3.30
2018-10-06T09:46:31.371Z,3.30
2018-10-06T09:49:04.262Z,3.53
2018-10-06T09:51:37.360Z,4.00
2018-10-06T09:54:12.735Z,4.90
2018-10-06T09:56:45.181Z,3.67
2018-10-06T09:59:18.413Z,3.20
2018-10-06T10:02:08.928Z,3.80
2018-10-06T10:04:43.017Z,3.23
2018-10-06T10:07:16.173Z,3.13
2018-10-06T10:09:51.537Z,3.23
2018-10-06T10:12:26.070Z,3.37
2018-10-06T10:15:00.593Z,3.47
2018-10-06T10:17:34.817Z,2.80
2018-10-06T10:20:07.220Z,3.23
2018-10-06T10:22:43.041Z,3.10
2018-10-06T10:25:17.822Z,3.20
2018-10-06T10:27:53.313Z,3.67
2018-10-06T10:30:26.526Z,2.90
2018-10-06T10:32:59.509Z,2.83
2018-10-06T10:35:32.340Z,3.17
2018-10-06T10:38:06.122Z,3.03
2018-10-06T10:40:40.960Z,3.00
2018-10-06T10:43:16.996Z,2.90
2018-10-06T10:45:49.914Z,3.47
2018-10-06T10:48:24.061Z,3.25
2018-10-06T10:50:58.408Z,2.67
2018-10-06T10:53:32.093Z,3.17
2018-10-06T10:56:09.533Z,3.07
2018-10-06T10:58:57.925Z,3.10
2018-10-06T11:01:36.105Z,3.37
2018-10-06T11:04:24.727Z,3.00
2018-10-06T11:07:00.888Z,3.27
2018-10-06T11:09:34.554Z,3.00
2018-10-06T11:12:10.308Z,2.80
2018-10-06T11:14:44.002Z,2.97
2018-10-06T11:17:16.719Z,3.20
2018-10-06T11:19:54.569Z,3.07
2018-10-06T11:22:28.205Z,3.07
2018-10-06T11:25:01.618Z,2.90
2018-10-06T11:27:39.566Z,3.20
2018-10-06T11:30:14.809Z,2.90
2018-10-06T11:32:47.454Z,3.08
2018-10-06T11:35:22.324Z,2.53
2018-10-06T11:37:58.863Z,3.50
2018-10-06T11:40:33.285Z,2.60
2018-10-06T11:43:07.308Z,2.87
2018-10-06T11:45:42.673Z,2.50
2018-10-06T11:48:17.980Z,8.37
2018-10-06T11:50:52.845Z,3.10
2018-10-06T11:53:31.830Z,2.57
2018-10-06T11:56:04.576Z,4.37
2018-10-06T11:58:39.540Z,2.97
2018-10-06T12:01:12.216Z,2.70
2018-10-06T12:03:46.645Z,2.53
2018-10-06T12:06:21.152Z,2.75
2018-10-06T12:08:53.837Z,2.55
2018-10-06T12:11:28.005Z,2.57
2018-10-06T12:14:04.339Z,2.80
2018-10-06T12:16:39.751Z,2.90
2018-10-06T12:19:13.013Z,3.10
2018-10-06T12:21:48.139Z,2.90
2018-10-06T12:24:20.926Z,2.77
2018-10-06T12:26:53.981Z,2.57
2018-10-06T12:29:29.587Z,3.40
2018-10-06T12:32:04.060Z,2.70
2018-10-06T12:34:37.986Z,2.67
2018-10-06T12:37:12.476Z,3.17
2018-10-06T12:39:45.802Z,2.87
2018-10-06T12:42:18.674Z,2.63
2018-10-06T12:44:56.736Z,3.40
2018-10-06T12:47:30.210Z,2.60
2018-10-06T12:50:07.764Z,2.50
2018-10-06T12:52:40.863Z,2.80
2018-10-06T12:55:14.458Z,2.70
2018-10-06T12:57:47.810Z,2.67
2018-10-06T13:00:20.929Z,2.30
2018-10-06T13:02:53.929Z,2.70
2018-10-06T13:05:27.145Z,2.70
2018-10-06T13:08:01.296Z,2.70
2018-10-06T13:10:35.180Z,2.90
2018-10-06T13:13:08.064Z,2.50
2018-10-06T13:15:41.578Z,2.80
2018-10-06T13:18:18.055Z,2.70
2018-10-06T13:20:52.578Z,2.40
2018-10-06T13:23:27.139Z,2.43
2018-10-06T13:25:59.665Z,2.83
2018-10-06T13:28:32.483Z,2.70
2018-10-06T13:31:05.620Z,2.40
2018-10-06T13:33:38.272Z,2.30
2018-10-06T13:36:14.204Z,2.17
2018-10-06T13:38:48.401Z,2.20
2018-10-06T13:41:23.000Z,2.57
2018-10-06T13:43:56.333Z,2.30
2018-10-06T13:46:29.898Z,2.23
2018-10-06T13:49:04.555Z,2.10
2018-10-06T13:51:38.855Z,2.00
2018-10-06T13:54:13.134Z,2.20
2018-10-06T13:56:46.898Z,2.10
2018-10-06T13:59:19.765Z,2.12
2018-10-06T14:01:56.386Z,2.13
2018-10-06T14:04:30.068Z,1.97
2018-10-06T14:07:08.760Z,2.00
2018-10-06T14:09:42.616Z,2.20
2018-10-06T14:12:16.076Z,2.57
2018-10-06T14:14:52.142Z,1.90
2018-10-06T14:17:25.432Z,2.40
2018-10-06T14:20:00.908Z,1.90
2018-10-06T14:22:34.441Z,2.50
2018-10-06T14:25:08.392Z,2.10
2018-10-06T14:27:43.553Z,2.10
2018-10-06T14:30:16.680Z,2.30
2018-10-06T14:32:49.468Z,2.20
2018-10-06T14:35:23.793Z,2.10
2018-10-06T14:37:57.044Z,1.90
2018-10-06T14:40:32.684Z,2.13
2018-10-06T14:43:07.751Z,2.20
2018-10-06T14:45:44.343Z,2.07
2018-10-06T14:48:18.005Z,2.03
2018-10-06T14:53:26.042Z,2.20
2018-10-06T14:56:01.442Z,2.50
2018-10-06T14:58:34.762Z,2.10
2018-10-06T15:01:14.650Z,2.27
2018-10-06T15:03:48.764Z,2.27
2018-10-06T15:06:25.245Z,2.37
2018-10-06T15:09:06.095Z,2.63
2018-10-06T15:11:41.097Z,2.10
2018-10-06T15:14:15.456Z,2.27
2018-10-06T15:16:49.122Z,2.00
2018-10-06T15:19:22.552Z,2.37
2018-10-06T15:21:56.691Z,2.70
2018-10-06T15:24:33.613Z,2.60
2018-10-06T15:27:10.383Z,2.07
2018-10-06T15:29:45.514Z,2.17
2018-10-06T15:32:23.065Z,2.67
2018-10-06T15:34:55.548Z,2.53
2018-10-06T15:37:28.716Z,2.63
2018-10-06T15:40:01.334Z,2.20
2018-10-06T15:42:35.227Z,2.13
2018-10-06T15:45:06.893Z,2.13
2018-10-06T15:47:43.170Z,2.43
2018-10-06T15:50:19.679Z,3.03
2018-10-06T15:52:59.509Z,3.37
2018-10-06T15:55:35.380Z,4.13
2018-10-06T15:58:09.341Z,4.37
2018-10-06T16:00:44.180Z,3.00
2018-10-06T16:03:16.940Z,3.20
2018-10-06T16:06:12.249Z,2.83
2018-10-06T16:09:10.533Z,2.80
2018-10-06T16:12:12.146Z,2.62
2018-10-06T16:14:50.085Z,2.57
2018-10-06T16:17:25.350Z,2.57
2018-10-06T16:20:02.184Z,2.40
2018-10-06T16:22:36.918Z,2.60
2018-10-06T16:25:11.568Z,2.50
2018-10-06T16:27:46.760Z,2.57
2018-10-06T16:30:28.233Z,2.47
2018-10-06T16:33:03.204Z,2.50
2018-10-06T16:35:36.780Z,1.97
2018-10-06T16:38:09.305Z,2.00
2018-10-06T16:40:45.552Z,2.40
2018-10-06T16:43:20.563Z,2.13
2018-10-06T16:45:56.068Z,2.43
2018-10-06T16:48:29.453Z,3.13
2018-10-06T16:51:02.866Z,2.87
2018-10-06T16:53:37.576Z,2.90
2018-10-06T16:56:11.398Z,2.97
2018-10-06T16:58:45.333Z,3.43
2018-10-06T17:01:18.532Z,3.03
2018-10-06T17:03:51.078Z,3.63
2018-10-06T17:06:25.278Z,3.53
2018-10-06T17:09:00.308Z,2.90
2018-10-06T17:11:33.646Z,3.20
2018-10-06T17:14:08.670Z,2.90
2018-10-06T17:16:44.780Z,4.20
2018-10-06T17:19:18.533Z,3.20
2018-10-06T17:21:52.949Z,2.80
2018-10-06T17:24:29.915Z,2.83
2018-10-06T17:27:02.429Z,3.23
2018-10-06T17:29:35.768Z,4.03
2018-10-06T17:32:08.804Z,6.32
2018-10-06T17:34:44.824Z,7.40
2018-10-06T17:37:20.427Z,3.43
2018-10-06T17:39:55.041Z,3.20
2018-10-06T17:42:29.089Z,3.10
2018-10-06T17:45:03.555Z,3.47
2018-10-06T17:47:36.860Z,3.80
2018-10-06T17:50:10.993Z,3.40
2018-10-06T17:52:45.804Z,2.63
2018-10-06T17:55:26.729Z,3.27
2018-10-06T17:58:03.543Z,3.43
2018-10-06T18:00:40.214Z,3.60
2018-10-06T18:03:14.173Z,3.40
2018-10-06T18:05:47.342Z,3.10
2018-10-06T18:08:20.531Z,2.97
2018-10-06T18:11:03.798Z,2.90
2018-10-06T18:13:37.162Z,2.70
2018-10-06T18:16:10.343Z,2.93
2018-10-06T18:18:44.319Z,3.63
2018-10-06T18:21:17.084Z,3.23
2018-10-06T18:23:49.610Z,3.10
2018-10-06T18:26:22.550Z,3.20
2018-10-06T18:28:56.138Z,3.20
2018-10-06T18:31:29.670Z,3.20
2018-10-06T18:34:02.942Z,3.00
2018-10-06T18:36:37.535Z,2.70
2018-10-06T18:39:10.516Z,3.50
2018-10-06T18:41:45.546Z,3.05
2018-10-06T18:44:18.305Z,3.20
2018-10-06T18:46:50.913Z,2.50
2018-10-06T18:49:27.210Z,2.70
2018-10-06T18:52:03.789Z,3.10
2018-10-06T18:54:43.809Z,2.90
2018-10-06T18:57:22.041Z,3.80
2018-10-06T18:59:55.243Z,3.20
2018-10-06T19:02:32.390Z,3.90
2018-10-06T19:05:07.805Z,3.47
2018-10-06T19:07:47.171Z,3.80
2018-10-06T19:10:22.590Z,4.00
2018-10-06T19:12:57.381Z,3.03
2018-10-06T19:15:33.813Z,3.83
2018-10-06T19:18:08.823Z,3.20
2018-10-06T19:20:43.317Z,3.60
2018-10-06T19:23:18.528Z,4.23
2018-10-06T19:25:51.415Z,4.37
2018-10-06T19:28:31.902Z,4.83
2018-10-06T19:31:08.871Z,4.80
2018-10-06T19:33:46.728Z,4.00
2018-10-06T19:36:21.794Z,4.67
2018-10-06T19:38:55.329Z,4.50
2018-10-06T19:41:31.560Z,5.13
2018-10-06T19:44:08.017Z,5.30
2018-10-06T19:46:50.056Z,5.83
2018-10-06T19:49:25.491Z,5.13
2018-10-06T19:52:03.832Z,4.67
2018-10-06T19:54:39.742Z,4.70
2018-10-06T19:57:15.634Z,4.80
2018-10-06T19:59:52.618Z,5.00
2018-10-06T20:02:30.654Z,4.93
2018-10-06T20:05:06.515Z,5.40
2018-10-06T20:07:44.328Z,4.97
2018-10-06T20:10:21.703Z,4.77
2018-10-06T20:13:00.794Z,4.23
2018-10-06T20:15:35.429Z,4.63
2018-10-06T20:18:10.000Z,6.10
2018-10-06T20:20:48.437Z,5.83
2018-10-06T20:23:23.797Z,4.87
2018-10-06T20:25:59.605Z,5.37
2018-10-06T20:28:34.591Z,5.10
2018-10-06T20:31:10.314Z,5.33
2018-10-06T20:33:44.628Z,5.23
2018-10-06T20:36:18.971Z,5.43
2018-10-06T20:38:53.676Z,5.30
2018-10-06T20:41:27.984Z,5.47
2018-10-06T20:44:03.022Z,5.60
2018-10-06T20:46:38.657Z,5.87
2018-10-06T20:49:12.806Z,6.13
2018-10-06T20:51:47.676Z,5.70
2018-10-06T20:54:27.569Z,5.77
2018-10-06T20:57:00.967Z,6.17
2018-10-06T20:59:35.988Z,5.60
2018-10-06T21:02:15.786Z,5.70
2018-10-06T21:04:53.170Z,5.13
2018-10-06T21:07:28.767Z,5.40
2018-10-06T21:10:03.273Z,5.67
2018-10-06T21:12:37.600Z,5.50
2018-10-06T21:15:13.552Z,5.50
2018-10-06T21:17:47.797Z,7.03
2018-10-06T21:20:24.510Z,6.73
2018-10-06T21:22:57.320Z,6.33
2018-10-06T21:25:31.242Z,5.97
2018-10-06T21:28:04.573Z,6.13
2018-10-06T21:30:42.306Z,6.80
2018-10-06T21:33:14.835Z,6.87
2018-10-06T21:35:48.061Z,5.83
2018-10-06T21:38:40.975Z,8.70
2018-10-06T21:41:14.702Z,6.60
2018-10-06T21:43:49.738Z,7.25
2018-10-06T21:46:24.597Z,6.93
2018-10-06T21:49:00.334Z,7.50
2018-10-06T21:51:36.020Z,7.73
2018-10-06T21:54:10.220Z,7.90
2018-10-06T21:56:44.300Z,8.68
2018-10-06T21:59:18.544Z,8.40
2018-10-06T22:01:58.824Z,8.73
2018-10-06T22:04:33.616Z,7.57
2018-10-06T22:07:07.114Z,9.07
2018-10-06T22:09:42.391Z,7.37
2018-10-06T22:12:16.091Z,8.43
2018-10-06T22:14:49.901Z,7.70
2018-10-06T22:17:26.624Z,8.43
2018-10-06T22:19:59.770Z,9.03
2018-10-06T22:22:37.511Z,9.20
2018-10-06T22:25:10.849Z,10.67
2018-10-06T22:27:44.529Z,9.90
2018-10-06T22:30:17.777Z,9.90
2018-10-06T22:32:50.861Z,10.47
2018-10-06T22:35:24.436Z,10.63
2018-10-06T22:37:57.483Z,11.07
2018-10-06T22:40:30.042Z,11.07
2018-10-06T22:43:02.609Z,11.40
2018-10-06T22:45:37.257Z,12.83
2018-10-06T22:48:10.622Z,16.90
2018-10-06T22:50:45.284Z,16.07
2018-10-06T22:53:19.470Z,19.77
2018-10-06T22:55:52.092Z,20.00
2018-10-06T22:58:25.637Z,19.53
2018-10-06T23:01:00.574Z,19.73
2018-10-06T23:03:35.081Z,21.67
2018-10-06T23:06:08.800Z,21.30
2018-10-06T23:08:44.011Z,24.50
2018-10-06T23:11:17.633Z,22.97
2018-10-06T23:13:50.293Z,24.20
2018-10-06T23:16:23.931Z,26.80
2018-10-06T23:18:58.468Z,32.87
2018-10-06T23:21:33.003Z,31.73
2018-10-06T23:24:08.015Z,35.97
2018-10-06T23:26:40.996Z,34.53
2018-10-06T23:29:13.985Z,37.47
2018-10-06T23:31:47.812Z,37.43
2018-10-06T23:34:21.454Z,38.60
2018-10-06T23:36:54.572Z,39.07
2018-10-06T23:39:27.955Z,39.07
2018-10-06T23:42:01.787Z,40.17
2018-10-06T23:44:34.401Z,35.77
2018-10-06T23:47:08.383Z,37.17
2018-10-06T23:49:42.724Z,35.67
2018-10-06T23:52:16.858Z,35.20
2018-10-06T23:54:49.832Z,36.10
2018-10-06T23:57:22.316Z,37.53
2018-10-06T23:59:55.016Z,37.73
